createdAt,value
2023-02-22T00:02:10.822Z,12.10
2023-02-22T00:04:39.746Z,10.23
2023-02-22T00:07:06.727Z,13.35
2023-02-22T00:09:33.485Z,12.38
2023-02-22T00:12:00.358Z,11.90
2023-02-22T00:14:27.561Z,13.55
2023-02-22T00:16:59.992Z,12.02
2023-02-22T00:19:28.140Z,10.82
2023-02-22T00:22:00.149Z,9.68
2023-02-22T00:24:26.932Z,11.52
2023-02-22T00:26:55.792Z,14.40
2023-02-22T00:29:23.437Z,11.43
2023-02-22T00:31:50.347Z,11.43
2023-02-22T00:34:17.770Z,12.30
2023-02-22T00:36:48.321Z,12.23
2023-02-22T00:39:16.851Z,14.18
2023-02-22T00:41:44.322Z,15.02
2023-02-22T00:44:11.736Z,12.00
2023-02-22T00:46:38.528Z,13.65
2023-02-22T00:49:05.349Z,13.98
2023-02-22T00:51:33.885Z,13.07
2023-02-22T00:54:00.648Z,12.88
2023-02-22T00:56:28.840Z,13.25
2023-02-22T00:58:55.685Z,12.55
2023-02-22T01:01:24.193Z,14.32
2023-02-22T01:03:51.114Z,12.82
2023-02-22T01:06:18.099Z,13.43
2023-02-22T01:08:45.911Z,13.20
2023-02-22T01:11:13.531Z,12.38
2023-02-22T01:13:42.001Z,13.45
2023-02-22T01:16:08.872Z,15.30
2023-02-22T01:18:39.853Z,16.17
2023-02-22T01:21:07.070Z,14.63
2023-02-22T01:23:33.932Z,16.58
2023-02-22T01:26:00.867Z,16.45
2023-02-22T01:28:29.152Z,16.45
2023-02-22T01:30:57.606Z,14.30
2023-02-22T01:33:25.635Z,16.60
2023-02-22T01:35:52.532Z,14.60
2023-02-22T01:38:19.364Z,13.35
2023-02-22T01:40:48.469Z,15.45
2023-02-22T01:43:19.423Z,15.77
2023-02-22T01:46:02.289Z,16.30
2023-02-22T01:48:42.260Z,17.17
2023-02-22T01:51:12.768Z,17.10
2023-02-22T01:53:47.519Z,17.40
2023-02-22T01:56:16.196Z,18.48
2023-02-22T01:58:48.570Z,17.23
2023-02-22T02:01:19.201Z,15.45
2023-02-22T02:03:46.367Z,18.35
2023-02-22T02:06:14.901Z,18.17
2023-02-22T02:08:51.769Z,16.00
2023-02-22T02:11:22.178Z,18.23
2023-02-22T02:13:51.812Z,16.13
2023-02-22T02:16:21.890Z,15.07
2023-02-22T02:18:49.153Z,16.15
2023-02-22T02:21:40.736Z,15.40
2023-02-22T02:24:40.467Z,16.35
2023-02-22T02:27:18.134Z,16.90
2023-02-22T02:30:22.481Z,15.95
2023-02-22T02:32:55.575Z,14.35
2023-02-22T02:35:35.666Z,17.58
2023-02-22T02:38:10.919Z,17.23
2023-02-22T02:40:47.327Z,13.27
2023-02-22T02:43:23.678Z,12.90
2023-02-22T02:45:58.823Z,17.45
2023-02-22T02:48:29.064Z,14.57
2023-02-22T02:50:59.364Z,16.75
2023-02-22T02:53:31.523Z,19.55
2023-02-22T02:55:59.070Z,15.73
2023-02-22T02:58:26.613Z,15.50
2023-02-22T03:00:56.909Z,16.08
2023-02-22T03:03:41.521Z,16.00
2023-02-22T03:06:42.205Z,16.25
2023-02-22T03:09:19.992Z,16.75
2023-02-22T03:11:59.734Z,15.38
2023-02-22T03:14:35.257Z,18.10
2023-02-22T03:17:08.884Z,15.02
2023-02-22T03:19:40.694Z,17.98
2023-02-22T03:27:14.508Z,13.52
2023-02-22T03:29:45.320Z,14.63
2023-02-22T03:32:17.088Z,16.52
2023-02-22T03:34:52.672Z,17.02
2023-02-22T03:37:23.369Z,16.70
2023-02-22T03:39:54.157Z,14.65
2023-02-22T03:42:24.138Z,16.80
2023-02-22T03:44:55.259Z,17.85
2023-02-22T03:47:28.508Z,17.45
2023-02-22T03:50:01.975Z,16.55
2023-02-22T03:52:28.972Z,16.33
2023-02-22T03:54:55.843Z,20.42
2023-02-22T03:57:30.933Z,16.65
2023-02-22T03:59:57.755Z,14.57
2023-02-22T04:02:24.561Z,16.77
2023-02-22T04:04:51.560Z,14.60
2023-02-22T04:07:19.797Z,15.15
2023-02-22T04:09:46.783Z,14.40
2023-02-22T04:12:13.586Z,16.88
2023-02-22T04:14:40.575Z,18.13
2023-02-22T04:17:07.456Z,17.50
2023-02-22T04:19:35.971Z,17.33
2023-02-22T04:22:03.141Z,16.15
2023-02-22T04:24:31.289Z,17.02
2023-02-22T04:26:58.245Z,20.50
2023-02-22T04:29:25.076Z,16.90
2023-02-22T04:31:52.652Z,18.45
2023-02-22T04:34:19.369Z,20.67
2023-02-22T04:36:46.421Z,20.10
2023-02-22T04:39:13.194Z,20.30
2023-02-22T04:42:00.130Z,18.67
2023-02-22T04:44:26.915Z,17.95
2023-02-22T04:46:53.836Z,18.25
2023-02-22T04:49:20.720Z,18.52
2023-02-22T04:51:47.531Z,19.50
2023-02-22T04:54:14.557Z,20.95
2023-02-22T04:56:41.471Z,18.95
2023-02-22T04:59:09.700Z,22.23
2023-02-22T05:01:37.880Z,23.95
2023-02-22T05:04:05.551Z,21.58
2023-02-22T05:06:32.439Z,25.17
2023-02-22T05:08:59.407Z,19.35
2023-02-22T05:11:26.320Z,21.20
2023-02-22T05:13:53.088Z,20.77
2023-02-22T05:16:21.502Z,23.20
2023-02-22T05:18:48.378Z,22.50
2023-02-22T05:21:15.373Z,23.48
2023-02-22T05:23:42.406Z,24.05
2023-02-22T05:26:11.643Z,23.33
2023-02-22T05:28:38.833Z,23.77
2023-02-22T05:31:07.372Z,22.90
2023-02-22T05:33:43.128Z,23.20
2023-02-22T05:36:10.249Z,22.80
2023-02-22T05:38:43.528Z,25.90
2023-02-22T05:41:11.454Z,22.30
2023-02-22T05:43:41.932Z,23.70
2023-02-22T05:46:09.075Z,24.73
2023-02-22T05:48:37.298Z,17.50
2023-02-22T05:51:04.494Z,23.33
2023-02-22T05:53:31.282Z,21.15
2023-02-22T05:55:58.084Z,24.42
2023-02-22T05:58:24.818Z,23.67
2023-02-22T06:00:51.694Z,23.13
2023-02-22T06:03:18.532Z,22.30
2023-02-22T06:05:46.992Z,21.73
2023-02-22T06:08:13.862Z,25.00
2023-02-22T06:10:41.072Z,20.90
2023-02-22T06:13:07.812Z,27.23
2023-02-22T06:15:34.601Z,35.13
2023-02-22T06:18:02.290Z,29.77
2023-02-22T06:20:31.417Z,29.35
2023-02-22T06:22:59.694Z,31.58
2023-02-22T06:25:28.091Z,27.55
2023-02-22T06:27:54.985Z,29.10
2023-02-22T06:30:23.020Z,32.53
2023-02-22T06:32:50.261Z,29.42
2023-02-22T06:35:17.413Z,26.98
2023-02-22T06:37:44.601Z,25.83
2023-02-22T06:40:13.498Z,27.58
2023-02-22T06:42:40.855Z,26.65
2023-02-22T06:45:08.725Z,32.63
2023-02-22T06:47:39.588Z,22.60
2023-02-22T06:50:07.213Z,22.98
2023-02-22T06:52:34.079Z,23.13
2023-02-22T06:55:01.120Z,20.75
2023-02-22T06:57:29.475Z,21.08
2023-02-22T06:59:56.254Z,27.63
2023-02-22T07:02:23.128Z,17.98
2023-02-22T07:04:50.032Z,18.05
2023-02-22T07:07:22.657Z,19.33
2023-02-22T07:09:49.581Z,17.67
2023-02-22T07:12:16.749Z,17.10
2023-02-22T07:14:45.070Z,18.85
2023-02-22T07:17:11.958Z,15.90
2023-02-22T07:19:39.047Z,17.80
2023-02-22T07:22:06.184Z,18.42
2023-02-22T07:24:35.104Z,17.13
2023-02-22T07:27:02.685Z,20.65
2023-02-22T07:29:32.345Z,15.93
2023-02-22T07:32:00.542Z,16.20
2023-02-22T07:34:27.356Z,20.25
2023-02-22T07:36:54.421Z,18.02
2023-02-22T07:39:21.093Z,24.70
2023-02-22T07:41:48.065Z,18.80
2023-02-22T07:44:15.311Z,18.85
2023-02-22T07:46:42.164Z,20.10
2023-02-22T07:49:10.473Z,18.77
2023-02-22T07:51:37.369Z,19.15
2023-02-22T07:54:04.491Z,18.67
2023-02-22T07:56:31.377Z,21.42
2023-02-22T07:58:58.178Z,20.90
2023-02-22T08:01:25.226Z,20.98
2023-02-22T08:03:52.777Z,21.35
2023-02-22T08:06:21.088Z,27.30
2023-02-22T08:08:47.831Z,21.90
2023-02-22T08:11:15.092Z,21.15
2023-02-22T08:13:41.893Z,21.65
2023-02-22T08:16:09.194Z,22.65
2023-02-22T08:18:38.273Z,19.00
2023-02-22T08:21:05.578Z,21.55
2023-02-22T08:23:34.458Z,21.98
2023-02-22T08:26:07.019Z,21.95
2023-02-22T08:28:33.811Z,20.80
2023-02-22T08:31:00.492Z,18.90
2023-02-22T08:33:27.468Z,19.38
2023-02-22T08:35:54.818Z,24.42
2023-02-22T08:38:23.682Z,26.15
2023-02-22T08:40:52.141Z,24.45
2023-02-22T08:43:20.074Z,23.85
2023-02-22T08:45:48.175Z,23.88
2023-02-22T08:48:16.617Z,33.08
2023-02-22T08:50:44.518Z,25.13
2023-02-22T08:53:13.784Z,21.75
2023-02-22T08:55:41.836Z,27.45
2023-02-22T08:58:10.687Z,24.70
2023-02-22T09:00:39.057Z,22.90
2023-02-22T09:03:07.461Z,20.75
2023-02-22T09:05:34.187Z,21.35
2023-02-22T09:08:02.104Z,19.20
2023-02-22T09:10:32.152Z,20.17
2023-02-22T09:13:00.949Z,17.40
2023-02-22T09:15:30.323Z,19.10
2023-02-22T09:17:57.213Z,18.48
2023-02-22T09:20:25.190Z,16.45
2023-02-22T09:22:52.344Z,19.88
2023-02-22T09:25:22.209Z,18.23
2023-02-22T09:27:49.921Z,20.75
2023-02-22T09:30:19.074Z,19.08
2023-02-22T09:32:47.619Z,19.05
2023-02-22T09:35:14.476Z,20.38
2023-02-22T09:37:45.048Z,23.65
2023-02-22T09:40:17.706Z,22.42
2023-02-22T09:42:53.345Z,18.65
2023-02-22T09:45:23.467Z,19.67
2023-02-22T09:47:57.673Z,19.20
2023-02-22T09:50:29.206Z,20.20
2023-02-22T09:53:05.132Z,23.73
2023-02-22T09:55:39.391Z,17.63
2023-02-22T09:58:16.249Z,17.02
2023-02-22T10:00:45.694Z,17.38
2023-02-22T10:03:22.869Z,16.38
2023-02-22T10:05:54.557Z,16.63
2023-02-22T10:08:21.792Z,20.00
2023-02-22T10:11:01.452Z,21.05
2023-02-22T10:13:42.177Z,19.40
2023-02-22T10:16:16.412Z,23.27
2023-02-22T10:19:08.222Z,21.42
2023-02-22T10:22:04.956Z,21.27
2023-02-22T10:24:42.669Z,22.63
2023-02-22T10:27:16.323Z,23.30
2023-02-22T10:29:46.756Z,23.52
2023-02-22T10:32:20.300Z,20.40
2023-02-22T10:34:51.644Z,25.75
2023-02-22T10:37:26.080Z,23.77
2023-02-22T10:39:59.180Z,24.42
2023-02-22T10:42:27.900Z,19.17
2023-02-22T10:44:54.856Z,22.35
2023-02-22T10:47:22.214Z,21.58
2023-02-22T10:49:55.834Z,21.17
2023-02-22T10:52:26.174Z,22.13
2023-02-22T10:55:13.599Z,22.05
2023-02-22T10:57:44.479Z,19.58
2023-02-22T11:00:21.068Z,21.20
2023-02-22T11:02:53.806Z,22.70
2023-02-22T11:05:36.790Z,21.17
2023-02-22T11:08:28.127Z,18.88
2023-02-22T11:10:56.707Z,22.00
2023-02-22T11:13:29.490Z,23.52
2023-02-22T11:16:00.233Z,21.85
2023-02-22T11:18:30.408Z,19.98
2023-02-22T11:21:05.121Z,23.55
2023-02-22T11:23:32.392Z,22.30
2023-02-22T11:26:07.379Z,22.25
2023-02-22T11:28:34.753Z,17.55
2023-02-22T11:31:13.688Z,17.50
2023-02-22T11:33:48.330Z,18.35
2023-02-22T11:36:30.789Z,17.60
2023-02-22T11:39:00.853Z,19.65
2023-02-22T11:41:29.180Z,17.13
2023-02-22T11:44:13.145Z,17.45
2023-02-22T11:46:42.027Z,17.00
2023-02-22T11:49:10.552Z,20.42
2023-02-22T11:51:50.650Z,16.35
2023-02-22T11:54:38.138Z,15.75
2023-02-22T11:57:16.496Z,16.15
2023-02-22T11:59:55.805Z,15.18
2023-02-22T12:02:56.861Z,15.07
2023-02-22T12:05:59.592Z,13.20
2023-02-22T12:08:37.215Z,16.85
2023-02-22T12:11:12.933Z,18.55
2023-02-22T12:14:06.162Z,16.55
2023-02-22T12:16:44.311Z,15.52
2023-02-22T12:19:22.222Z,16.35
2023-02-22T12:21:55.684Z,18.30
2023-02-22T12:24:27.771Z,16.73
2023-02-22T12:27:01.732Z,14.15
2023-02-22T12:29:37.662Z,14.85
2023-02-22T12:32:10.837Z,16.48
2023-02-22T12:34:41.543Z,13.93
2023-02-22T12:37:16.788Z,15.88
2023-02-22T12:39:54.265Z,13.73
2023-02-22T12:42:29.631Z,17.00
2023-02-22T12:45:01.098Z,16.02
2023-02-22T12:47:37.005Z,13.70
2023-02-22T12:50:15.558Z,15.75
2023-02-22T12:52:46.948Z,16.13
2023-02-22T12:55:21.401Z,12.38
2023-02-22T12:57:57.207Z,13.88
2023-02-22T13:00:30.549Z,11.38
2023-02-22T13:03:03.663Z,14.68
2023-02-22T13:05:36.565Z,14.35
2023-02-22T13:08:22.826Z,15.50
2023-02-22T13:11:03.227Z,12.23
2023-02-22T13:13:42.736Z,12.10
2023-02-22T13:16:21.995Z,12.63
2023-02-22T13:18:55.456Z,11.48
2023-02-22T13:21:29.511Z,11.18
2023-02-22T13:24:05.253Z,12.27
2023-02-22T13:26:40.147Z,11.82
2023-02-22T13:29:13.784Z,11.30
2023-02-22T13:31:59.414Z,13.10
2023-02-22T13:34:54.281Z,12.93
2023-02-22T13:37:49.678Z,12.70
2023-02-22T13:40:45.477Z,12.23
2023-02-22T13:43:39.024Z,11.35
2023-02-22T13:46:21.035Z,10.63
2023-02-22T13:49:08.451Z,11.90
2023-02-22T13:51:47.998Z,12.50
2023-02-22T13:54:20.990Z,12.00
2023-02-22T13:56:51.298Z,15.77
2023-02-22T13:59:26.269Z,13.00
2023-02-22T14:01:55.036Z,12.80
2023-02-22T14:04:44.174Z,12.43
2023-02-22T14:07:47.361Z,12.60
2023-02-22T14:10:37.612Z,12.98
2023-02-22T14:13:05.560Z,12.88
2023-02-22T14:15:35.495Z,11.88
2023-02-22T14:18:04.388Z,11.93
2023-02-22T14:20:35.217Z,13.45
2023-02-22T14:23:31.700Z,11.88
2023-02-22T14:26:11.296Z,13.52
2023-02-22T14:28:46.273Z,13.13
2023-02-22T14:31:33.346Z,12.45
2023-02-22T14:34:06.283Z,13.20
2023-02-22T14:36:36.637Z,14.35
2023-02-22T14:39:11.539Z,12.63
2023-02-22T14:41:40.914Z,11.93
2023-02-22T14:44:12.904Z,12.48
2023-02-22T14:46:44.136Z,10.85
2023-02-22T14:49:18.984Z,12.65
2023-02-22T14:51:53.455Z,11.98
2023-02-22T14:54:26.713Z,10.63
2023-02-22T14:57:12.106Z,13.60
2023-02-22T14:59:52.698Z,11.55
2023-02-22T15:02:25.893Z,12.52
2023-02-22T15:04:54.796Z,12.48
2023-02-22T15:07:27.474Z,11.25
2023-02-22T15:10:26.083Z,11.25
2023-02-22T15:13:08.749Z,11.30
2023-02-22T15:15:39.563Z,12.23
2023-02-22T15:18:27.131Z,10.02
2023-02-22T15:20:58.195Z,11.00
2023-02-22T15:23:30.348Z,11.90
2023-02-22T15:25:58.225Z,9.98
2023-02-22T15:28:28.969Z,9.88
2023-02-22T15:31:18.529Z,13.73
2023-02-22T15:33:47.164Z,12.27
2023-02-22T15:36:17.570Z,11.77
2023-02-22T15:38:49.216Z,12.20
2023-02-22T15:41:22.173Z,11.95
2023-02-22T15:44:05.436Z,12.55
2023-02-22T15:46:35.129Z,12.18
2023-02-22T15:49:20.845Z,12.00
2023-02-22T15:51:59.123Z,11.10
2023-02-22T15:54:27.765Z,10.60
2023-02-22T15:56:56.496Z,13.50
2023-02-22T15:59:29.623Z,10.82
2023-02-22T16:01:58.531Z,10.98
2023-02-22T16:04:29.019Z,12.50
2023-02-22T16:07:05.138Z,10.00
2023-02-22T16:09:33.237Z,11.57
2023-02-22T16:12:22.192Z,13.43
2023-02-22T16:14:50.399Z,11.27
2023-02-22T16:17:35.927Z,10.73
2023-02-22T16:20:32.617Z,12.65
2023-02-22T16:23:00.715Z,12.38
2023-02-22T16:25:32.951Z,12.60
2023-02-22T16:28:03.123Z,10.45
2023-02-22T16:30:33.129Z,10.43
2023-02-22T16:33:05.516Z,13.50
2023-02-22T16:35:35.459Z,11.27
2023-02-22T16:38:04.513Z,12.98
2023-02-22T16:40:34.550Z,11.82
2023-02-22T16:43:02.891Z,11.25
2023-02-22T16:45:29.797Z,11.82
2023-02-22T16:47:56.610Z,13.73
2023-02-22T16:50:23.878Z,10.10
2023-02-22T16:52:55.160Z,11.95
2023-02-22T16:55:22.415Z,11.07
2023-02-22T16:57:49.927Z,10.80
2023-02-22T17:00:19.560Z,11.18
2023-02-22T17:02:46.311Z,12.15
2023-02-22T17:05:15.263Z,10.25
2023-02-22T17:07:42.460Z,12.00
2023-02-22T17:10:15.420Z,12.68
2023-02-22T17:12:44.480Z,11.55
2023-02-22T17:15:20.584Z,10.55
2023-02-22T17:17:47.439Z,12.82
2023-02-22T17:20:14.163Z,12.15
2023-02-22T17:22:40.919Z,11.80
2023-02-22T17:25:21.920Z,12.10
2023-02-22T17:27:48.846Z,12.70
2023-02-22T17:30:17.033Z,12.80
2023-02-22T17:32:44.213Z,13.45
2023-02-22T17:35:10.980Z,12.00
2023-02-22T17:37:38.313Z,13.38
2023-02-22T17:40:06.131Z,12.02
2023-02-22T17:42:34.302Z,13.02
2023-02-22T17:45:00.979Z,14.30
2023-02-22T17:47:27.724Z,16.00
2023-02-22T17:49:54.424Z,14.70
2023-02-22T17:52:21.166Z,13.20
2023-02-22T17:54:47.938Z,16.05
2023-02-22T17:57:16.652Z,14.15
2023-02-22T17:59:44.775Z,14.23
2023-02-22T18:02:11.517Z,14.40
2023-02-22T18:04:40.376Z,15.27
2023-02-22T18:07:07.269Z,15.23
2023-02-22T18:09:38.293Z,16.00
2023-02-22T18:12:05.329Z,12.05
2023-02-22T18:14:32.015Z,13.75
2023-02-22T18:17:01.704Z,15.90
2023-02-22T18:19:29.237Z,18.85
2023-02-22T18:22:00.276Z,14.50
2023-02-22T18:24:27.015Z,15.32
2023-02-22T18:26:53.833Z,15.68
2023-02-22T18:29:20.591Z,16.77
2023-02-22T18:31:47.289Z,18.60
2023-02-22T18:34:16.024Z,15.90
2023-02-22T18:36:44.538Z,15.00
2023-02-22T18:39:11.788Z,15.98
2023-02-22T18:41:38.951Z,16.63
2023-02-22T18:44:06.565Z,16.55
2023-02-22T18:46:33.342Z,17.08
2023-02-22T18:49:00.145Z,16.80
2023-02-22T18:51:28.840Z,16.50
2023-02-22T18:54:00.412Z,20.52
2023-02-22T18:56:31.081Z,20.65
2023-02-22T18:58:59.691Z,21.02
2023-02-22T19:01:27.145Z,21.95
2023-02-22T19:03:54.124Z,22.45
2023-02-22T19:06:23.507Z,22.45
2023-02-22T19:08:51.861Z,23.48
2023-02-22T19:11:21.998Z,26.85
2023-02-22T19:13:51.943Z,26.70
2023-02-22T19:16:22.602Z,26.90
2023-02-22T19:18:52.360Z,29.02
2023-02-22T19:21:20.220Z,23.63
2023-02-22T19:23:48.642Z,26.00
2023-02-22T19:26:30.924Z,26.95
2023-02-22T19:28:59.693Z,28.13
2023-02-22T19:31:31.302Z,24.67
2023-02-22T19:34:01.358Z,25.05
2023-02-22T19:36:30.367Z,29.83
2023-02-22T19:39:02.674Z,25.38
2023-02-22T19:41:32.279Z,26.23
2023-02-22T19:43:59.768Z,23.35
2023-02-22T19:46:26.741Z,22.42
2023-02-22T19:48:55.383Z,26.48
2023-02-22T19:51:25.505Z,25.80
2023-02-22T19:53:53.551Z,27.40
2023-02-22T19:56:27.091Z,25.92
2023-02-22T19:58:57.605Z,24.60
2023-02-22T20:01:26.057Z,26.02
2023-02-22T20:03:55.242Z,27.50
2023-02-22T20:06:26.511Z,24.88
2023-02-22T20:08:55.138Z,28.35
2023-02-22T20:11:22.737Z,27.98
2023-02-22T20:13:52.738Z,25.88
2023-02-22T20:16:21.468Z,31.30
2023-02-22T20:18:49.031Z,29.70
2023-02-22T20:21:20.474Z,31.65
2023-02-22T20:23:48.156Z,28.50
2023-02-22T20:26:17.364Z,27.42
2023-02-22T20:28:44.404Z,32.20
2023-02-22T20:31:13.865Z,28.65
2023-02-22T20:33:42.808Z,28.45
2023-02-22T20:36:13.148Z,30.58
2023-02-22T20:38:40.329Z,29.65
2023-02-22T20:41:08.136Z,27.00
2023-02-22T20:43:35.650Z,31.65
2023-02-22T20:46:02.538Z,31.10
2023-02-22T20:48:30.093Z,30.33
2023-02-22T20:51:06.848Z,29.50
2023-02-22T20:53:34.535Z,29.90
2023-02-22T20:56:01.662Z,27.92
2023-02-22T20:58:29.324Z,32.95
2023-02-22T21:00:56.089Z,29.02
2023-02-22T21:03:23.006Z,29.40
2023-02-22T21:05:49.821Z,29.83
2023-02-22T21:08:17.978Z,33.17
2023-02-22T21:10:47.256Z,34.10
2023-02-22T21:13:14.614Z,33.97
2023-02-22T21:15:44.007Z,29.27
2023-02-22T21:18:13.482Z,35.92
2023-02-22T21:20:42.780Z,38.50
2023-02-22T21:23:19.608Z,36.83
2023-02-22T21:25:53.915Z,32.15
2023-02-22T21:28:20.859Z,36.95
2023-02-22T21:30:47.743Z,36.38
2023-02-22T21:33:17.640Z,30.63
2023-02-22T21:35:47.230Z,36.35
2023-02-22T21:38:17.368Z,40.42
2023-02-22T21:40:46.477Z,40.67
2023-02-22T21:43:25.147Z,38.28
2023-02-22T21:45:51.904Z,31.73
2023-02-22T21:48:18.662Z,34.30
2023-02-22T21:50:45.499Z,34.85
2023-02-22T21:53:12.842Z,32.08
2023-02-22T21:55:44.276Z,34.70
2023-02-22T21:58:16.180Z,33.67
2023-02-22T22:00:44.581Z,31.70
2023-02-22T22:03:17.131Z,33.83
2023-02-22T22:05:46.161Z,33.67
2023-02-22T22:08:19.454Z,35.58
2023-02-22T22:10:51.520Z,41.88
2023-02-22T22:13:19.961Z,34.47
2023-02-22T22:15:46.743Z,35.42
2023-02-22T22:18:13.642Z,34.72
2023-02-22T22:20:40.396Z,32.25
2023-02-22T22:23:07.632Z,34.83
2023-02-22T22:25:38.269Z,38.38
2023-02-22T22:28:07.603Z,36.05
2023-02-22T22:30:37.099Z,35.95
2023-02-22T22:33:07.532Z,36.88
2023-02-22T22:35:34.241Z,34.30
2023-02-22T22:38:01.219Z,36.88
2023-02-22T22:40:28.646Z,38.15
2023-02-22T22:42:55.718Z,35.08
2023-02-22T22:45:25.583Z,34.55
2023-02-22T22:47:53.753Z,36.60
2023-02-22T22:50:26.399Z,38.50
2023-02-22T22:52:55.510Z,35.42
2023-02-22T22:55:24.307Z,34.78
2023-02-22T22:57:54.127Z,35.35
2023-02-22T23:00:37.757Z,33.50
2023-02-22T23:03:07.071Z,34.42
2023-02-22T23:05:46.403Z,34.42
2023-02-22T23:08:13.326Z,36.20
2023-02-22T23:10:41.215Z,35.83
2023-02-22T23:13:15.584Z,39.33
2023-02-22T23:15:43.358Z,38.45
2023-02-22T23:18:12.453Z,32.22
2023-02-22T23:20:39.236Z,35.47
2023-02-22T23:23:06.265Z,30.48
2023-02-22T23:25:33.608Z,32.45
2023-02-22T23:28:00.734Z,32.25
2023-02-22T23:30:27.671Z,32.08
2023-02-22T23:32:54.429Z,36.83
2023-02-22T23:35:22.712Z,32.90
2023-02-22T23:37:57.952Z,38.15
2023-02-22T23:40:25.994Z,37.20
2023-02-22T23:42:56.506Z,31.67
2023-02-22T23:45:24.442Z,35.83
2023-02-22T23:47:54.789Z,38.03
2023-02-22T23:50:25.787Z,34.17
2023-02-22T23:52:58.476Z,37.33
2023-02-22T23:55:26.449Z,35.28
